sensor_id;sensor_type;location;lat;lon;timestamp;P1;durP1;ratioP1;P2;durP2;ratioP2
48076;SDS011;33854;57.708;12.008;2023-02-23T00:04:20;2.30;;;1.35;;
48076;SDS011;33854;57.708;12.008;2023-02-23T00:06:45;0.97;;;0.93;;
48076;SDS011;33854;57.708;12.008;2023-02-23T00:09:11;1.77;;;1.10;;
48076;SDS011;33854;57.708;12.008;2023-02-23T00:11:39;2.10;;;1.23;;
48076;SDS011;33854;57.708;12.008;2023-02-23T00:14:05;2.60;;;1.40;;
48076;SDS011;33854;57.708;12.008;2023-02-23T00:16:32;4.00;;;1.35;;
48076;SDS011;33854;57.708;12.008;2023-02-23T00:18:57;2.20;;;1.20;;
48076;SDS011;33854;57.708;12.008;2023-02-23T00:21:30;2.38;;;1.60;;
48076;SDS011;33854;57.708;12.008;2023-02-23T00:23:59;4.68;;;1.67;;
48076;SDS011;33854;57.708;12.008;2023-02-23T00:26:35;2.17;;;1.10;;
48076;SDS011;33854;57.708;12.008;2023-02-23T00:29:03;2.15;;;1.73;;
48076;SDS011;33854;57.708;12.008;2023-02-23T00:31:31;3.03;;;1.63;;
48076;SDS011;33854;57.708;12.008;2023-02-23T00:33:58;2.47;;;1.77;;
48076;SDS011;33854;57.708;12.008;2023-02-23T00:36:26;1.70;;;1.60;;
48076;SDS011;33854;57.708;12.008;2023-02-23T00:38:53;1.80;;;1.40;;
48076;SDS011;33854;57.708;12.008;2023-02-23T00:41:20;2.85;;;1.58;;
48076;SDS011;33854;57.708;12.008;2023-02-23T00:43:48;3.00;;;1.70;;
48076;SDS011;33854;57.708;12.008;2023-02-23T00:46:17;2.27;;;1.30;;
48076;SDS011;33854;57.708;12.008;2023-02-23T00:48:46;3.03;;;1.63;;
48076;SDS011;33854;57.708;12.008;2023-02-23T00:51:13;3.60;;;1.70;;
48076;SDS011;33854;57.708;12.008;2023-02-23T00:53:39;2.28;;;1.42;;
48076;SDS011;33854;57.708;12.008;2023-02-23T00:56:07;5.43;;;2.05;;
48076;SDS011;33854;57.708;12.008;2023-02-23T00:58:33;2.20;;;1.80;;
48076;SDS011;33854;57.708;12.008;2023-02-23T01:00:59;2.27;;;1.70;;
48076;SDS011;33854;57.708;12.008;2023-02-23T01:03:25;2.77;;;1.77;;
48076;SDS011;33854;57.708;12.008;2023-02-23T01:05:51;2.80;;;1.80;;
48076;SDS011;33854;57.708;12.008;2023-02-23T01:08:17;3.87;;;2.30;;
48076;SDS011;33854;57.708;12.008;2023-02-23T01:10:43;6.43;;;2.30;;
48076;SDS011;33854;57.708;12.008;2023-02-23T01:13:20;4.13;;;1.90;;
48076;SDS011;33854;57.708;12.008;2023-02-23T01:15:47;5.20;;;1.83;;
48076;SDS011;33854;57.708;12.008;2023-02-23T01:18:14;3.92;;;2.10;;
48076;SDS011;33854;57.708;12.008;2023-02-23T01:20:41;3.45;;;1.70;;
48076;SDS011;33854;57.708;12.008;2023-02-23T01:23:07;5.43;;;2.35;;
48076;SDS011;33854;57.708;12.008;2023-02-23T01:25:33;7.00;;;2.10;;
48076;SDS011;33854;57.708;12.008;2023-02-23T01:27:59;1.38;;;1.27;;
48076;SDS011;33854;57.708;12.008;2023-02-23T01:30:25;2.53;;;2.25;;
48076;SDS011;33854;57.708;12.008;2023-02-23T01:32:51;4.70;;;2.50;;
48076;SDS011;33854;57.708;12.008;2023-02-23T01:35:16;5.23;;;2.50;;
48076;SDS011;33854;57.708;12.008;2023-02-23T01:37:42;5.17;;;2.27;;
48076;SDS011;33854;57.708;12.008;2023-02-23T01:40:17;3.95;;;2.10;;
48076;SDS011;33854;57.708;12.008;2023-02-23T01:42:53;5.45;;;2.63;;
48076;SDS011;33854;57.708;12.008;2023-02-23T01:45:26;6.93;;;2.67;;
48076;SDS011;33854;57.708;12.008;2023-02-23T01:47:56;8.00;;;2.83;;
48076;SDS011;33854;57.708;12.008;2023-02-23T01:50:28;4.68;;;2.60;;
48076;SDS011;33854;57.708;12.008;2023-02-23T01:52:56;4.75;;;2.50;;
48076;SDS011;33854;57.708;12.008;2023-02-23T01:55:23;6.07;;;2.80;;
48076;SDS011;33854;57.708;12.008;2023-02-23T01:57:53;6.63;;;2.83;;
48076;SDS011;33854;57.708;12.008;2023-02-23T02:00:27;4.97;;;2.75;;
48076;SDS011;33854;57.708;12.008;2023-02-23T02:02:55;5.10;;;3.00;;
48076;SDS011;33854;57.708;12.008;2023-02-23T02:05:22;8.43;;;3.03;;
48076;SDS011;33854;57.708;12.008;2023-02-23T02:07:49;5.75;;;2.95;;
48076;SDS011;33854;57.708;12.008;2023-02-23T02:10:24;7.78;;;3.25;;
48076;SDS011;33854;57.708;12.008;2023-02-23T02:13:10;5.55;;;3.05;;
48076;SDS011;33854;57.708;12.008;2023-02-23T02:16:40;6.00;;;2.97;;
48076;SDS011;33854;57.708;12.008;2023-02-23T02:18:46;8.65;;;3.38;;
48076;SDS011;33854;57.708;12.008;2023-02-23T02:32:06;9.05;;;4.15;;
48076;SDS011;33854;57.708;12.008;2023-02-23T02:41:02;5.13;;;3.00;;
48076;SDS011;33854;57.708;12.008;2023-02-23T02:46:22;6.70;;;2.83;;
48076;SDS011;33854;57.708;12.008;2023-02-23T02:49:02;7.72;;;3.58;;
48076;SDS011;33854;57.708;12.008;2023-02-23T02:56:42;7.03;;;3.30;;
48076;SDS011;33854;57.708;12.008;2023-02-23T02:59:15;6.70;;;3.10;;
48076;SDS011;33854;57.708;12.008;2023-02-23T03:02:01;6.03;;;2.80;;
48076;SDS011;33854;57.708;12.008;2023-02-23T03:04:47;5.28;;;2.75;;
48076;SDS011;33854;57.708;12.008;2023-02-23T03:10:46;9.52;;;3.53;;
48076;SDS011;33854;57.708;12.008;2023-02-23T03:13:58;10.77;;;3.83;;
48076;SDS011;33854;57.708;12.008;2023-02-23T03:32:14;9.20;;;3.42;;
48076;SDS011;33854;57.708;12.008;2023-02-23T03:41:03;8.38;;;3.20;;
48076;SDS011;33854;57.708;12.008;2023-02-23T03:43:55;6.40;;;3.47;;
48076;SDS011;33854;57.708;12.008;2023-02-23T03:46:42;9.40;;;3.40;;
48076;SDS011;33854;57.708;12.008;2023-02-23T03:49:31;6.63;;;3.88;;
48076;SDS011;33854;57.708;12.008;2023-02-23T03:52:20;8.68;;;2.95;;
48076;SDS011;33854;57.708;12.008;2023-02-23T03:55:09;8.23;;;2.83;;
48076;SDS011;33854;57.708;12.008;2023-02-23T03:57:59;6.65;;;3.63;;
48076;SDS011;33854;57.708;12.008;2023-02-23T04:00:48;9.40;;;3.45;;
48076;SDS011;33854;57.708;12.008;2023-02-23T04:03:36;8.80;;;3.92;;
48076;SDS011;33854;57.708;12.008;2023-02-23T04:06:25;8.13;;;3.85;;
48076;SDS011;33854;57.708;12.008;2023-02-23T04:09:13;8.93;;;3.40;;
48076;SDS011;33854;57.708;12.008;2023-02-23T04:11:59;7.18;;;3.42;;
48076;SDS011;33854;57.708;12.008;2023-02-23T04:14:53;10.77;;;3.92;;
48076;SDS011;33854;57.708;12.008;2023-02-23T04:17:28;8.57;;;3.95;;
48076;SDS011;33854;57.708;12.008;2023-02-23T04:19:54;8.93;;;3.85;;
48076;SDS011;33854;57.708;12.008;2023-02-23T04:22:21;9.60;;;3.38;;
48076;SDS011;33854;57.708;12.008;2023-02-23T04:24:47;7.55;;;3.60;;
48076;SDS011;33854;57.708;12.008;2023-02-23T04:27:13;10.52;;;3.28;;
48076;SDS011;33854;57.708;12.008;2023-02-23T04:29:39;8.73;;;3.73;;
48076;SDS011;33854;57.708;12.008;2023-02-23T04:32:05;8.53;;;3.50;;
48076;SDS011;33854;57.708;12.008;2023-02-23T04:34:31;6.13;;;3.13;;
48076;SDS011;33854;57.708;12.008;2023-02-23T04:36:57;8.55;;;4.07;;
48076;SDS011;33854;57.708;12.008;2023-02-23T04:39:22;7.17;;;4.27;;
48076;SDS011;33854;57.708;12.008;2023-02-23T04:41:48;8.20;;;3.90;;
48076;SDS011;33854;57.708;12.008;2023-02-23T04:44:14;8.45;;;4.30;;
48076;SDS011;33854;57.708;12.008;2023-02-23T04:46:42;12.60;;;4.38;;
48076;SDS011;33854;57.708;12.008;2023-02-23T04:49:08;11.30;;;4.73;;
48076;SDS011;33854;57.708;12.008;2023-02-23T04:51:33;9.63;;;4.80;;
48076;SDS011;33854;57.708;12.008;2023-02-23T04:56:26;12.18;;;4.85;;
48076;SDS011;33854;57.708;12.008;2023-02-23T04:58:52;11.32;;;4.93;;
48076;SDS011;33854;57.708;12.008;2023-02-23T05:01:18;10.87;;;4.47;;
48076;SDS011;33854;57.708;12.008;2023-02-23T05:03:46;9.93;;;4.90;;
48076;SDS011;33854;57.708;12.008;2023-02-23T05:06:11;8.47;;;4.97;;
48076;SDS011;33854;57.708;12.008;2023-02-23T05:08:37;13.68;;;5.45;;
48076;SDS011;33854;57.708;12.008;2023-02-23T05:11:04;9.83;;;5.17;;
48076;SDS011;33854;57.708;12.008;2023-02-23T05:13:30;10.80;;;5.32;;
48076;SDS011;33854;57.708;12.008;2023-02-23T05:15:56;16.97;;;6.87;;
48076;SDS011;33854;57.708;12.008;2023-02-23T05:18:21;9.10;;;5.10;;
48076;SDS011;33854;57.708;12.008;2023-02-23T05:20:49;12.82;;;5.25;;
48076;SDS011;33854;57.708;12.008;2023-02-23T05:23:15;7.90;;;4.50;;
48076;SDS011;33854;57.708;12.008;2023-02-23T05:25:40;15.53;;;6.53;;
48076;SDS011;33854;57.708;12.008;2023-02-23T05:28:06;10.43;;;5.67;;
48076;SDS011;33854;57.708;12.008;2023-02-23T05:30:31;16.37;;;6.87;;
48076;SDS011;33854;57.708;12.008;2023-02-23T05:32:57;15.63;;;5.80;;
48076;SDS011;33854;57.708;12.008;2023-02-23T05:35:23;14.27;;;6.03;;
48076;SDS011;33854;57.708;12.008;2023-02-23T05:37:48;13.07;;;5.70;;
48076;SDS011;33854;57.708;12.008;2023-02-23T05:40:14;14.67;;;7.87;;
48076;SDS011;33854;57.708;12.008;2023-02-23T05:42:39;12.63;;;7.20;;
48076;SDS011;33854;57.708;12.008;2023-02-23T05:45:05;21.43;;;6.63;;
48076;SDS011;33854;57.708;12.008;2023-02-23T05:47:31;13.10;;;7.43;;
48076;SDS011;33854;57.708;12.008;2023-02-23T05:49:59;16.88;;;5.90;;
48076;SDS011;33854;57.708;12.008;2023-02-23T05:52:25;14.32;;;7.43;;
48076;SDS011;33854;57.708;12.008;2023-02-23T05:54:51;18.20;;;7.30;;
48076;SDS011;33854;57.708;12.008;2023-02-23T05:57:16;18.67;;;7.67;;
48076;SDS011;33854;57.708;12.008;2023-02-23T05:59:42;16.50;;;8.67;;
48076;SDS011;33854;57.708;12.008;2023-02-23T06:02:07;18.40;;;8.33;;
48076;SDS011;33854;57.708;12.008;2023-02-23T06:04:32;17.13;;;5.97;;
48076;SDS011;33854;57.708;12.008;2023-02-23T06:06:58;18.10;;;7.97;;
48076;SDS011;33854;57.708;12.008;2023-02-23T06:09:23;16.60;;;7.77;;
48076;SDS011;33854;57.708;12.008;2023-02-23T06:11:49;14.07;;;9.00;;
48076;SDS011;33854;57.708;12.008;2023-02-23T06:14:15;21.27;;;9.93;;
48076;SDS011;33854;57.708;12.008;2023-02-23T06:16:41;20.00;;;8.70;;
48076;SDS011;33854;57.708;12.008;2023-02-23T06:19:09;18.20;;;7.30;;
48076;SDS011;33854;57.708;12.008;2023-02-23T06:21:35;18.98;;;7.60;;
48076;SDS011;33854;57.708;12.008;2023-02-23T06:24:01;16.20;;;4.93;;
48076;SDS011;33854;57.708;12.008;2023-02-23T06:26:27;25.97;;;10.10;;
48076;SDS011;33854;57.708;12.008;2023-02-23T06:28:52;19.65;;;8.73;;
48076;SDS011;33854;57.708;12.008;2023-02-23T06:31:18;30.20;;;10.60;;
48076;SDS011;33854;57.708;12.008;2023-02-23T06:33:43;19.97;;;10.00;;
48076;SDS011;33854;57.708;12.008;2023-02-23T06:36:09;25.10;;;9.63;;
48076;SDS011;33854;57.708;12.008;2023-02-23T06:38:34;21.33;;;9.97;;
48076;SDS011;33854;57.708;12.008;2023-02-23T06:41:05;21.38;;;9.15;;
48076;SDS011;33854;57.708;12.008;2023-02-23T06:43:32;25.48;;;10.43;;
48076;SDS011;33854;57.708;12.008;2023-02-23T06:45:57;16.53;;;8.23;;
48076;SDS011;33854;57.708;12.008;2023-02-23T06:48:23;19.00;;;8.87;;
48076;SDS011;33854;57.708;12.008;2023-02-23T06:50:48;23.07;;;10.10;;
48076;SDS011;33854;57.708;12.008;2023-02-23T06:53:13;22.40;;;10.67;;
48076;SDS011;33854;57.708;12.008;2023-02-23T06:55:39;22.27;;;9.60;;
48076;SDS011;33854;57.708;12.008;2023-02-23T06:58:04;20.00;;;8.27;;
48076;SDS011;33854;57.708;12.008;2023-02-23T07:00:31;20.42;;;9.10;;
48076;SDS011;33854;57.708;12.008;2023-02-23T07:02:56;23.43;;;9.90;;
48076;SDS011;33854;57.708;12.008;2023-02-23T07:05:23;21.77;;;10.45;;
48076;SDS011;33854;57.708;12.008;2023-02-23T07:07:49;20.67;;;10.85;;
48076;SDS011;33854;57.708;12.008;2023-02-23T07:10:16;21.08;;;9.57;;
48076;SDS011;33854;57.708;12.008;2023-02-23T07:12:42;22.58;;;10.15;;
48076;SDS011;33854;57.708;12.008;2023-02-23T07:15:08;22.50;;;10.73;;
48076;SDS011;33854;57.708;12.008;2023-02-23T07:17:34;19.90;;;10.70;;
48076;SDS011;33854;57.708;12.008;2023-02-23T07:20:00;19.98;;;8.63;;
48076;SDS011;33854;57.708;12.008;2023-02-23T07:22:25;42.30;;;16.37;;
48076;SDS011;33854;57.708;12.008;2023-02-23T07:24:54;60.72;;;30.95;;
48076;SDS011;33854;57.708;12.008;2023-02-23T07:27:20;24.17;;;10.73;;
48076;SDS011;33854;57.708;12.008;2023-02-23T07:29:46;25.03;;;9.30;;
48076;SDS011;33854;57.708;12.008;2023-02-23T07:32:11;23.00;;;9.23;;
48076;SDS011;33854;57.708;12.008;2023-02-23T07:34:37;22.60;;;10.63;;
48076;SDS011;33854;57.708;12.008;2023-02-23T07:37:03;14.48;;;8.48;;
48076;SDS011;33854;57.708;12.008;2023-02-23T07:39:28;25.63;;;10.67;;
48076;SDS011;33854;57.708;12.008;2023-02-23T07:41:54;27.38;;;12.10;;
48076;SDS011;33854;57.708;12.008;2023-02-23T07:44:20;19.63;;;8.00;;
48076;SDS011;33854;57.708;12.008;2023-02-23T07:46:46;22.60;;;9.33;;
48076;SDS011;33854;57.708;12.008;2023-02-23T07:49:11;25.80;;;11.73;;
48076;SDS011;33854;57.708;12.008;2023-02-23T07:51:38;27.00;;;11.05;;
48076;SDS011;33854;57.708;12.008;2023-02-23T07:54:04;27.25;;;11.65;;
48076;SDS011;33854;57.708;12.008;2023-02-23T07:56:30;23.33;;;10.93;;
48076;SDS011;33854;57.708;12.008;2023-02-23T07:58:57;25.38;;;10.85;;
48076;SDS011;33854;57.708;12.008;2023-02-23T08:01:22;17.60;;;10.20;;
48076;SDS011;33854;57.708;12.008;2023-02-23T08:03:47;24.47;;;11.13;;
48076;SDS011;33854;57.708;12.008;2023-02-23T08:06:14;17.73;;;10.07;;
48076;SDS011;33854;57.708;12.008;2023-02-23T08:08:43;20.60;;;10.70;;
48076;SDS011;33854;57.708;12.008;2023-02-23T08:11:08;23.70;;;11.03;;
48076;SDS011;33854;57.708;12.008;2023-02-23T08:13:35;21.47;;;10.30;;
48076;SDS011;33854;57.708;12.008;2023-02-23T08:16:01;17.63;;;9.02;;
48076;SDS011;33854;57.708;12.008;2023-02-23T08:18:26;22.23;;;9.90;;
48076;SDS011;33854;57.708;12.008;2023-02-23T08:21:02;23.63;;;10.80;;
48076;SDS011;33854;57.708;12.008;2023-02-23T08:23:28;23.08;;;10.00;;
48076;SDS011;33854;57.708;12.008;2023-02-23T08:25:55;20.40;;;9.23;;
48076;SDS011;33854;57.708;12.008;2023-02-23T08:28:20;21.97;;;9.07;;
48076;SDS011;33854;57.708;12.008;2023-02-23T08:30:46;17.60;;;8.57;;
48076;SDS011;33854;57.708;12.008;2023-02-23T08:33:12;13.33;;;6.73;;
48076;SDS011;33854;57.708;12.008;2023-02-23T08:35:37;29.63;;;11.50;;
48076;SDS011;33854;57.708;12.008;2023-02-23T08:38:03;22.03;;;9.40;;
48076;SDS011;33854;57.708;12.008;2023-02-23T08:40:28;21.70;;;9.93;;
48076;SDS011;33854;57.708;12.008;2023-02-23T08:42:53;22.67;;;9.03;;
48076;SDS011;33854;57.708;12.008;2023-02-23T08:45:19;21.43;;;10.03;;
48076;SDS011;33854;57.708;12.008;2023-02-23T08:47:45;25.93;;;9.67;;
48076;SDS011;33854;57.708;12.008;2023-02-23T08:50:11;20.93;;;10.80;;
48076;SDS011;33854;57.708;12.008;2023-02-23T08:52:37;21.25;;;9.27;;
48076;SDS011;33854;57.708;12.008;2023-02-23T08:55:03;15.45;;;8.13;;
48076;SDS011;33854;57.708;12.008;2023-02-23T08:57:31;14.65;;;7.25;;
48076;SDS011;33854;57.708;12.008;2023-02-23T08:59:58;15.75;;;6.82;;
48076;SDS011;33854;57.708;12.008;2023-02-23T09:02:23;23.03;;;10.03;;
48076;SDS011;33854;57.708;12.008;2023-02-23T09:04:49;15.37;;;8.67;;
48076;SDS011;33854;57.708;12.008;2023-02-23T09:07:18;20.55;;;9.45;;
48076;SDS011;33854;57.708;12.008;2023-02-23T09:09:51;17.65;;;8.73;;
48076;SDS011;33854;57.708;12.008;2023-02-23T09:12:18;18.42;;;10.40;;
48076;SDS011;33854;57.708;12.008;2023-02-23T09:14:43;18.57;;;9.77;;
48076;SDS011;33854;57.708;12.008;2023-02-23T09:17:08;17.37;;;9.80;;
48076;SDS011;33854;57.708;12.008;2023-02-23T09:19:34;14.63;;;6.97;;
48076;SDS011;33854;57.708;12.008;2023-02-23T09:21:59;18.23;;;8.57;;
48076;SDS011;33854;57.708;12.008;2023-02-23T09:24:25;19.57;;;10.43;;
48076;SDS011;33854;57.708;12.008;2023-02-23T09:26:50;19.73;;;9.33;;
48076;SDS011;33854;57.708;12.008;2023-02-23T09:29:17;19.77;;;10.70;;
48076;SDS011;33854;57.708;12.008;2023-02-23T09:31:43;21.43;;;10.03;;
48076;SDS011;33854;57.708;12.008;2023-02-23T09:34:08;15.50;;;9.47;;
48076;SDS011;33854;57.708;12.008;2023-02-23T09:36:36;16.85;;;10.55;;
48076;SDS011;33854;57.708;12.008;2023-02-23T09:39:02;22.03;;;10.27;;
48076;SDS011;33854;57.708;12.008;2023-02-23T09:49:16;23.35;;;11.43;;
48076;SDS011;33854;57.708;12.008;2023-02-23T09:51:47;24.95;;;10.88;;
48076;SDS011;33854;57.708;12.008;2023-02-23T09:54:21;25.08;;;12.40;;
48076;SDS011;33854;57.708;12.008;2023-02-23T09:56:48;22.40;;;10.25;;
48076;SDS011;33854;57.708;12.008;2023-02-23T09:59:16;32.35;;;13.93;;
48076;SDS011;33854;57.708;12.008;2023-02-23T10:06:58;22.15;;;10.60;;
48076;SDS011;33854;57.708;12.008;2023-02-23T10:12:21;30.55;;;12.40;;
48076;SDS011;33854;57.708;12.008;2023-02-23T10:20:41;36.10;;;15.05;;
48076;SDS011;33854;57.708;12.008;2023-02-23T10:23:06;42.33;;;16.02;;
48076;SDS011;33854;57.708;12.008;2023-02-23T10:25:39;37.15;;;15.75;;
48076;SDS011;33854;57.708;12.008;2023-02-23T10:28:10;38.25;;;15.02;;
48076;SDS011;33854;57.708;12.008;2023-02-23T10:30:40;33.95;;;13.23;;
48076;SDS011;33854;57.708;12.008;2023-02-23T10:33:20;30.13;;;14.02;;
48076;SDS011;33854;57.708;12.008;2023-02-23T10:35:54;36.60;;;16.35;;
48076;SDS011;33854;57.708;12.008;2023-02-23T10:38:24;36.92;;;13.35;;
48076;SDS011;33854;57.708;12.008;2023-02-23T10:40:53;28.33;;;13.77;;
48076;SDS011;33854;57.708;12.008;2023-02-23T10:43:19;40.75;;;12.27;;
48076;SDS011;33854;57.708;12.008;2023-02-23T10:45:47;33.17;;;15.27;;
48076;SDS011;33854;57.708;12.008;2023-02-23T10:48:18;39.70;;;15.85;;
48076;SDS011;33854;57.708;12.008;2023-02-23T10:50:47;41.88;;;14.43;;
48076;SDS011;33854;57.708;12.008;2023-02-23T10:53:26;47.83;;;16.67;;
48076;SDS011;33854;57.708;12.008;2023-02-23T10:56:17;43.80;;;17.65;;
48076;SDS011;33854;57.708;12.008;2023-02-23T10:58:45;45.60;;;18.00;;
48076;SDS011;33854;57.708;12.008;2023-02-23T11:01:14;42.72;;;17.10;;
48076;SDS011;33854;57.708;12.008;2023-02-23T11:03:45;43.67;;;15.88;;
48076;SDS011;33854;57.708;12.008;2023-02-23T11:08:55;42.85;;;16.88;;
48076;SDS011;33854;57.708;12.008;2023-02-23T11:11:25;51.70;;;16.60;;
48076;SDS011;33854;57.708;12.008;2023-02-23T11:13:53;50.05;;;17.50;;
48076;SDS011;33854;57.708;12.008;2023-02-23T11:16:24;56.72;;;19.42;;
48076;SDS011;33854;57.708;12.008;2023-02-23T11:18:57;48.67;;;17.95;;
48076;SDS011;33854;57.708;12.008;2023-02-23T11:23:54;52.10;;;18.25;;
48076;SDS011;33854;57.708;12.008;2023-02-23T11:26:35;52.60;;;18.55;;
48076;SDS011;33854;57.708;12.008;2023-02-23T11:29:16;62.13;;;19.63;;
48076;SDS011;33854;57.708;12.008;2023-02-23T11:32:00;63.75;;;18.75;;
48076;SDS011;33854;57.708;12.008;2023-02-23T11:34:33;69.30;;;20.52;;
48076;SDS011;33854;57.708;12.008;2023-02-23T11:39:54;59.40;;;19.40;;
48076;SDS011;33854;57.708;12.008;2023-02-23T11:42:22;56.55;;;19.63;;
48076;SDS011;33854;57.708;12.008;2023-02-23T11:47:26;52.22;;;17.23;;
48076;SDS011;33854;57.708;12.008;2023-02-23T11:49:52;61.20;;;16.70;;
48076;SDS011;33854;57.708;12.008;2023-02-23T11:52:19;71.43;;;21.23;;
48076;SDS011;33854;57.708;12.008;2023-02-23T11:54:51;73.22;;;19.88;;
48076;SDS011;33854;57.708;12.008;2023-02-23T11:57:30;74.38;;;22.98;;
48076;SDS011;33854;57.708;12.008;2023-02-23T11:59:58;72.10;;;20.33;;
48076;SDS011;33854;57.708;12.008;2023-02-23T12:02:26;61.67;;;19.73;;
48076;SDS011;33854;57.708;12.008;2023-02-23T12:07:45;46.88;;;16.27;;
48076;SDS011;33854;57.708;12.008;2023-02-23T12:10:23;53.72;;;18.08;;
48076;SDS011;33854;57.708;12.008;2023-02-23T12:15:39;31.95;;;14.55;;
48076;SDS011;33854;57.708;12.008;2023-02-23T12:20:55;36.95;;;15.32;;
48076;SDS011;33854;57.708;12.008;2023-02-23T12:23:25;43.88;;;15.35;;
48076;SDS011;33854;57.708;12.008;2023-02-23T12:26:15;31.90;;;13.50;;
48076;SDS011;33854;57.708;12.008;2023-02-23T12:32:13;37.67;;;13.40;;
48076;SDS011;33854;57.708;12.008;2023-02-23T12:43:03;24.30;;;12.00;;
48076;SDS011;33854;57.708;12.008;2023-02-23T12:45:46;25.25;;;11.98;;
48076;SDS011;33854;57.708;12.008;2023-02-23T12:51:17;26.58;;;10.90;;
48076;SDS011;33854;57.708;12.008;2023-02-23T12:53:48;29.75;;;11.88;;
48076;SDS011;33854;57.708;12.008;2023-02-23T13:01:22;32.08;;;12.65;;
48076;SDS011;33854;57.708;12.008;2023-02-23T13:17:55;57.80;;;18.17;;
48076;SDS011;33854;57.708;12.008;2023-02-23T13:26:00;79.43;;;22.83;;
48076;SDS011;33854;57.708;12.008;2023-02-23T13:31:07;64.60;;;18.98;;
48076;SDS011;33854;57.708;12.008;2023-02-23T13:33:45;64.63;;;21.67;;
48076;SDS011;33854;57.708;12.008;2023-02-23T13:36:10;66.77;;;21.33;;
48076;SDS011;33854;57.708;12.008;2023-02-23T13:41:33;70.20;;;22.95;;
48076;SDS011;33854;57.708;12.008;2023-02-23T13:46:52;73.80;;;22.70;;
48076;SDS011;33854;57.708;12.008;2023-02-23T13:49:21;72.50;;;22.00;;
48076;SDS011;33854;57.708;12.008;2023-02-23T13:52:02;90.68;;;24.58;;
48076;SDS011;33854;57.708;12.008;2023-02-23T13:54:38;85.05;;;24.23;;
48076;SDS011;33854;57.708;12.008;2023-02-23T13:57:20;88.20;;;24.27;;
48076;SDS011;33854;57.708;12.008;2023-02-23T13:59:46;91.15;;;25.98;;
48076;SDS011;33854;57.708;12.008;2023-02-23T14:02:22;102.40;;;26.43;;
48076;SDS011;33854;57.708;12.008;2023-02-23T14:05:04;114.72;;;27.15;;
48076;SDS011;33854;57.708;12.008;2023-02-23T14:07:31;85.28;;;26.10;;
48076;SDS011;33854;57.708;12.008;2023-02-23T14:10:05;92.82;;;25.83;;
48076;SDS011;33854;57.708;12.008;2023-02-23T14:12:55;94.95;;;25.70;;
48076;SDS011;33854;57.708;12.008;2023-02-23T14:15:47;101.90;;;27.77;;
48076;SDS011;33854;57.708;12.008;2023-02-23T14:29:27;98.03;;;27.40;;
48076;SDS011;33854;57.708;12.008;2023-02-23T14:34:41;110.35;;;26.90;;
48076;SDS011;33854;57.708;12.008;2023-02-23T14:40:04;163.60;;;28.98;;
48076;SDS011;33854;57.708;12.008;2023-02-23T14:42:36;108.50;;;26.58;;
48076;SDS011;33854;57.708;12.008;2023-02-23T14:45:05;105.20;;;26.98;;
48076;SDS011;33854;57.708;12.008;2023-02-23T14:47:44;110.22;;;26.85;;
48076;SDS011;33854;57.708;12.008;2023-02-23T14:50:13;126.82;;;27.90;;
48076;SDS011;33854;57.708;12.008;2023-02-23T14:55:19;186.02;;;30.00;;
48076;SDS011;33854;57.708;12.008;2023-02-23T14:57:47;90.65;;;25.08;;
48076;SDS011;33854;57.708;12.008;2023-02-23T15:02:39;61.83;;;18.20;;
48076;SDS011;33854;57.708;12.008;2023-02-23T15:05:21;75.85;;;20.20;;
48076;SDS011;33854;57.708;12.008;2023-02-23T15:07:49;60.25;;;19.63;;
48076;SDS011;33854;57.708;12.008;2023-02-23T15:12:41;51.07;;;15.93;;
48076;SDS011;33854;57.708;12.008;2023-02-23T15:15:16;51.20;;;15.83;;
48076;SDS011;33854;57.708;12.008;2023-02-23T15:17:45;53.25;;;16.63;;
48076;SDS011;33854;57.708;12.008;2023-02-23T15:20:16;63.05;;;17.50;;
48076;SDS011;33854;57.708;12.008;2023-02-23T15:22:51;55.03;;;16.08;;
48076;SDS011;33854;57.708;12.008;2023-02-23T15:25:20;55.40;;;16.85;;
48076;SDS011;33854;57.708;12.008;2023-02-23T15:27:51;59.10;;;18.00;;
48076;SDS011;33854;57.708;12.008;2023-02-23T15:32:45;59.58;;;17.20;;
48076;SDS011;33854;57.708;12.008;2023-02-23T15:35:11;60.57;;;14.07;;
48076;SDS011;33854;57.708;12.008;2023-02-23T15:40:25;34.42;;;10.57;;
48076;SDS011;33854;57.708;12.008;2023-02-23T15:42:55;33.40;;;10.55;;
48076;SDS011;33854;57.708;12.008;2023-02-23T15:45:26;28.92;;;10.38;;
48076;SDS011;33854;57.708;12.008;2023-02-23T15:48:20;31.98;;;11.30;;
48076;SDS011;33854;57.708;12.008;2023-02-23T15:50:49;28.65;;;11.07;;
48076;SDS011;33854;57.708;12.008;2023-02-23T15:53:34;29.20;;;11.13;;
48076;SDS011;33854;57.708;12.008;2023-02-23T15:56:03;28.27;;;11.13;;
48076;SDS011;33854;57.708;12.008;2023-02-23T15:58:39;27.48;;;10.23;;
48076;SDS011;33854;57.708;12.008;2023-02-23T16:01:10;29.58;;;10.50;;
48076;SDS011;33854;57.708;12.008;2023-02-23T16:03:43;26.05;;;10.70;;
48076;SDS011;33854;57.708;12.008;2023-02-23T16:08:58;27.85;;;10.23;;
48076;SDS011;33854;57.708;12.008;2023-02-23T16:11:46;18.40;;;9.35;;
48076;SDS011;33854;57.708;12.008;2023-02-23T16:14:18;20.52;;;8.80;;
48076;SDS011;33854;57.708;12.008;2023-02-23T16:16:45;17.35;;;8.27;;
48076;SDS011;33854;57.708;12.008;2023-02-23T16:19:14;15.48;;;7.95;;
48076;SDS011;33854;57.708;12.008;2023-02-23T16:21:42;18.13;;;8.85;;
48076;SDS011;33854;57.708;12.008;2023-02-23T16:24:17;17.27;;;9.13;;
48076;SDS011;33854;57.708;12.008;2023-02-23T16:26:59;16.55;;;8.02;;
48076;SDS011;33854;57.708;12.008;2023-02-23T16:31:55;13.10;;;6.43;;
48076;SDS011;33854;57.708;12.008;2023-02-23T16:34:26;10.10;;;6.03;;
48076;SDS011;33854;57.708;12.008;2023-02-23T16:37:15;9.02;;;5.30;;
48076;SDS011;33854;57.708;12.008;2023-02-23T16:39:43;8.82;;;4.10;;
48076;SDS011;33854;57.708;12.008;2023-02-23T16:42:30;7.87;;;4.53;;
48076;SDS011;33854;57.708;12.008;2023-02-23T16:44:56;14.77;;;4.63;;
48076;SDS011;33854;57.708;12.008;2023-02-23T16:49:49;4.67;;;2.80;;
48076;SDS011;33854;57.708;12.008;2023-02-23T16:54:42;3.47;;;2.30;;
48076;SDS011;33854;57.708;12.008;2023-02-23T16:57:12;7.85;;;3.42;;
48076;SDS011;33854;57.708;12.008;2023-02-23T16:59:47;6.20;;;1.70;;
48076;SDS011;33854;57.708;12.008;2023-02-23T17:02:14;5.43;;;2.63;;
48076;SDS011;33854;57.708;12.008;2023-02-23T17:04:42;5.00;;;2.28;;
48076;SDS011;33854;57.708;12.008;2023-02-23T17:07:12;7.40;;;2.53;;
48076;SDS011;33854;57.708;12.008;2023-02-23T17:09:39;6.03;;;2.67;;
48076;SDS011;33854;57.708;12.008;2023-02-23T17:12:05;4.37;;;2.20;;
48076;SDS011;33854;57.708;12.008;2023-02-23T17:14:30;3.93;;;2.87;;
48076;SDS011;33854;57.708;12.008;2023-02-23T17:16:57;5.80;;;3.42;;
48076;SDS011;33854;57.708;12.008;2023-02-23T17:19:22;9.23;;;3.90;;
48076;SDS011;33854;57.708;12.008;2023-02-23T17:21:48;7.50;;;3.27;;
48076;SDS011;33854;57.708;12.008;2023-02-23T17:24:14;6.32;;;2.45;;
48076;SDS011;33854;57.708;12.008;2023-02-23T17:26:40;4.22;;;2.13;;
48076;SDS011;33854;57.708;12.008;2023-02-23T17:29:06;3.63;;;1.97;;
48076;SDS011;33854;57.708;12.008;2023-02-23T17:31:32;5.23;;;2.33;;
48076;SDS011;33854;57.708;12.008;2023-02-23T17:33:58;4.23;;;2.50;;
48076;SDS011;33854;57.708;12.008;2023-02-23T17:36:23;5.10;;;1.80;;
48076;SDS011;33854;57.708;12.008;2023-02-23T17:38:51;4.78;;;2.30;;
48076;SDS011;33854;57.708;12.008;2023-02-23T17:41:22;3.70;;;2.13;;